createdAt,value
2022-12-02T01:10:09.540Z,8.88
2022-12-02T01:11:42.597Z,9.63
2022-12-02T01:13:14.660Z,10.02
2022-12-02T01:14:50.593Z,10.70
2022-12-02T01:16:23.978Z,11.50
2022-12-02T01:17:56.421Z,11.30
2022-12-02T01:19:29.393Z,11.25
2022-12-02T01:21:02.372Z,11.07
2022-12-02T01:22:35.407Z,11.65
2022-12-02T01:24:08.577Z,10.68
2022-12-02T01:25:42.080Z,10.48
2022-12-02T01:27:14.960Z,10.40
2022-12-02T01:28:47.956Z,12.00
2022-12-02T01:30:21.098Z,10.98
2022-12-02T01:31:55.728Z,11.20
2022-12-02T01:33:28.768Z,10.90
2022-12-02T01:35:01.683Z,11.60
2022-12-02T01:36:34.561Z,10.98
2022-12-02T01:38:06.484Z,11.43
2022-12-02T01:39:39.363Z,11.73
2022-12-02T01:41:13.983Z,12.10
2022-12-02T01:42:47.061Z,10.93
2022-12-02T01:44:20.036Z,11.45
2022-12-02T01:45:52.548Z,10.85
2022-12-02T01:47:25.716Z,11.30
2022-12-02T01:48:58.629Z,11.27
2022-12-02T01:50:32.721Z,11.80
2022-12-02T01:52:05.962Z,11.15
2022-12-02T01:53:39.452Z,12.20
2022-12-02T01:55:14.205Z,11.77
2022-12-02T01:56:48.384Z,12.30
2022-12-02T01:58:25.287Z,11.30
2022-12-02T01:59:58.888Z,11.77
2022-12-02T02:01:34.033Z,11.88
2022-12-02T02:03:06.140Z,12.07
2022-12-02T02:04:39.119Z,11.88
2022-12-02T02:06:11.056Z,12.57
2022-12-02T02:07:45.336Z,12.00
2022-12-02T02:09:18.387Z,12.90
2022-12-02T02:10:51.435Z,11.57
2022-12-02T02:12:26.849Z,13.18
2022-12-02T02:13:59.867Z,13.02
2022-12-02T02:15:33.159Z,11.80
2022-12-02T02:17:05.127Z,12.18
2022-12-02T02:18:38.093Z,12.15
2022-12-02T02:20:12.576Z,12.05
2022-12-02T02:21:51.222Z,11.82
2022-12-02T02:23:27.314Z,11.90
2022-12-02T02:24:59.285Z,12.32
2022-12-02T02:26:32.191Z,12.30
2022-12-02T02:28:04.328Z,11.45
2022-12-02T02:29:37.224Z,11.80
2022-12-02T02:31:10.407Z,11.60
2022-12-02T02:32:42.741Z,12.63
2022-12-02T02:34:15.865Z,12.20
2022-12-02T02:35:48.320Z,11.45
2022-12-02T02:37:21.257Z,12.83
2022-12-02T02:38:55.888Z,11.45
2022-12-02T02:40:30.862Z,10.65
2022-12-02T02:42:04.164Z,11.73
2022-12-02T02:43:38.160Z,11.48
2022-12-02T02:45:12.044Z,12.07
2022-12-02T02:46:44.937Z,11.48
2022-12-02T02:48:18.779Z,11.63
2022-12-02T02:49:51.891Z,11.63
2022-12-02T02:51:25.007Z,12.23
2022-12-02T02:52:57.515Z,12.38
2022-12-02T02:54:31.858Z,11.55
2022-12-02T02:56:04.190Z,11.52
2022-12-02T02:57:38.058Z,12.02
2022-12-02T02:59:14.690Z,11.68
2022-12-02T03:00:51.796Z,11.80
2022-12-02T03:02:26.157Z,10.38
2022-12-02T03:04:03.368Z,10.70
2022-12-02T03:05:35.339Z,10.52
2022-12-02T03:07:08.450Z,10.70
2022-12-02T03:08:45.979Z,10.95
2022-12-02T03:10:20.635Z,11.55
2022-12-02T03:11:56.103Z,11.35
2022-12-02T03:13:29.903Z,10.80
2022-12-02T03:15:04.271Z,10.50
2022-12-02T03:16:37.510Z,11.23
2022-12-02T03:18:09.934Z,10.98
2022-12-02T03:19:43.631Z,11.10
2022-12-02T03:21:19.006Z,11.52
2022-12-02T03:22:52.325Z,10.98
2022-12-02T03:24:25.551Z,10.95
2022-12-02T03:26:00.407Z,10.77
2022-12-02T03:27:33.974Z,11.82
2022-12-02T03:29:07.656Z,11.05
2022-12-02T03:30:41.238Z,11.40
2022-12-02T03:32:14.325Z,11.00
2022-12-02T03:33:47.484Z,11.02
2022-12-02T03:35:20.458Z,10.43
2022-12-02T03:36:52.479Z,12.02
2022-12-02T03:38:25.920Z,10.30
2022-12-02T03:41:33.404Z,10.48
2022-12-02T03:43:06.507Z,10.23
2022-12-02T03:44:39.609Z,10.93
2022-12-02T03:46:13.359Z,10.65
2022-12-02T03:47:46.714Z,10.50
2022-12-02T03:49:20.234Z,10.27
2022-12-02T03:52:27.212Z,9.88
2022-12-02T03:54:01.803Z,11.20
2022-12-02T03:55:34.985Z,9.80
2022-12-02T03:57:09.849Z,10.32
2022-12-02T03:58:47.280Z,10.60
2022-12-02T04:00:20.823Z,10.73
2022-12-02T04:01:53.778Z,10.55
2022-12-02T04:03:25.927Z,10.38
2022-12-02T04:04:58.914Z,10.80
2022-12-02T04:06:30.829Z,10.70
2022-12-02T04:08:03.757Z,10.13
2022-12-02T04:09:36.638Z,11.10
2022-12-02T04:11:09.555Z,10.13
2022-12-02T04:12:43.791Z,10.30
2022-12-02T04:14:16.794Z,9.80
2022-12-02T04:15:49.838Z,10.43
2022-12-02T04:17:21.773Z,10.55
2022-12-02T04:18:54.710Z,9.88
2022-12-02T04:20:26.669Z,9.95
2022-12-02T04:21:59.561Z,10.82
2022-12-02T04:23:32.918Z,10.85
2022-12-02T04:25:06.305Z,10.18
2022-12-02T04:26:43.676Z,10.27
2022-12-02T04:28:17.510Z,10.55
2022-12-02T04:31:23.322Z,10.43
2022-12-02T04:32:56.257Z,10.25
2022-12-02T04:34:29.262Z,10.88
2022-12-02T04:36:02.119Z,11.50
2022-12-02T04:37:34.226Z,11.05
2022-12-02T04:39:07.147Z,10.98
2022-12-02T04:40:40.086Z,10.35
2022-12-02T04:42:12.969Z,11.13
2022-12-02T04:43:47.245Z,10.30
2022-12-02T04:45:20.165Z,18.25
2022-12-02T04:46:53.184Z,10.05
2022-12-02T04:48:26.233Z,10.20
2022-12-02T04:49:58.150Z,10.02
2022-12-02T04:51:32.289Z,11.10
2022-12-02T04:53:04.269Z,10.63
2022-12-02T04:54:37.098Z,11.05
2022-12-02T04:56:09.009Z,10.77
2022-12-02T04:57:41.906Z,11.13
2022-12-02T04:59:16.239Z,11.32
2022-12-02T05:00:49.134Z,9.60
2022-12-02T05:02:21.066Z,9.88
2022-12-02T05:03:54.030Z,10.00
2022-12-02T05:05:27.014Z,10.15
2022-12-02T05:06:59.972Z,10.40
2022-12-02T05:08:32.886Z,11.45
2022-12-02T05:10:06.617Z,10.60
2022-12-02T05:11:39.639Z,10.65
2022-12-02T05:13:11.596Z,10.50
2022-12-02T05:14:45.847Z,11.05
2022-12-02T05:16:18.839Z,10.57
2022-12-02T05:17:51.865Z,9.98
2022-12-02T05:19:24.811Z,10.68
2022-12-02T05:20:56.713Z,10.48
2022-12-02T05:22:29.694Z,10.20
2022-12-02T05:24:02.682Z,11.00
2022-12-02T05:25:35.686Z,11.07
2022-12-02T05:27:08.619Z,11.00
2022-12-02T05:28:41.569Z,10.82
2022-12-02T05:30:16.141Z,10.93
2022-12-02T05:31:48.144Z,10.70
2022-12-02T05:33:21.092Z,10.43
2022-12-02T05:34:53.995Z,10.68
2022-12-02T05:36:26.877Z,10.45
2022-12-02T05:38:04.535Z,10.75
2022-12-02T05:39:38.344Z,10.75
2022-12-02T05:41:11.379Z,11.30
2022-12-02T05:42:44.380Z,9.93
2022-12-02T05:44:21.642Z,10.90
2022-12-02T05:46:00.327Z,10.85
2022-12-02T05:47:35.237Z,10.40
2022-12-02T05:49:17.580Z,10.35
2022-12-02T05:50:50.558Z,11.07
2022-12-02T05:52:25.216Z,10.02
2022-12-02T05:53:58.467Z,11.30
2022-12-02T05:55:32.268Z,10.35
2022-12-02T05:57:12.642Z,10.13
2022-12-02T05:58:45.640Z,10.82
2022-12-02T06:00:20.564Z,10.75
2022-12-02T06:01:57.865Z,10.48
2022-12-02T06:03:32.181Z,11.30
2022-12-02T06:05:14.120Z,11.80
2022-12-02T06:06:47.657Z,10.98
2022-12-02T06:08:22.855Z,10.80
2022-12-02T06:09:56.041Z,10.38
2022-12-02T06:11:31.177Z,10.90
2022-12-02T06:13:13.173Z,10.80
2022-12-02T06:14:51.919Z,10.65
2022-12-02T06:16:27.136Z,11.98
2022-12-02T06:18:01.525Z,11.23
2022-12-02T06:19:44.316Z,11.05
2022-12-02T06:21:21.312Z,10.82
2022-12-02T06:22:53.292Z,11.18
2022-12-02T06:24:29.826Z,11.20
2022-12-02T06:26:02.929Z,12.07
2022-12-02T06:27:35.883Z,12.00
2022-12-02T06:29:11.129Z,11.90
2022-12-02T06:30:44.311Z,12.73
2022-12-02T06:32:20.860Z,12.20
2022-12-02T06:33:58.463Z,10.15
2022-12-02T06:35:34.076Z,11.40
2022-12-02T06:37:21.471Z,11.55
2022-12-02T06:38:57.878Z,11.23
2022-12-02T06:40:32.009Z,11.27
2022-12-02T06:42:12.378Z,11.48
2022-12-02T06:44:05.774Z,11.50
2022-12-02T06:45:38.011Z,11.07
2022-12-02T06:47:47.603Z,11.45
2022-12-02T06:49:23.068Z,11.25
2022-12-02T06:50:58.572Z,12.82
2022-12-02T06:52:34.632Z,11.63
2022-12-02T06:54:17.109Z,11.70
2022-12-02T06:55:51.350Z,11.80
2022-12-02T06:57:24.253Z,13.18
2022-12-02T06:59:00.687Z,11.80
2022-12-02T07:00:33.418Z,11.45
2022-12-02T07:02:17.116Z,11.85
2022-12-02T07:04:04.311Z,12.23
2022-12-02T07:05:38.493Z,12.05
2022-12-02T07:07:18.490Z,11.52
2022-12-02T07:08:51.626Z,12.07
2022-12-02T07:10:30.220Z,12.52
2022-12-02T07:12:03.473Z,12.18
2022-12-02T07:13:36.594Z,11.52
2022-12-02T07:15:24.892Z,12.52
2022-12-02T07:17:00.915Z,12.48
2022-12-02T07:18:34.039Z,11.95
2022-12-02T07:20:25.292Z,12.63
2022-12-02T07:21:59.754Z,12.60
2022-12-02T07:23:33.251Z,12.68
2022-12-02T07:25:32.265Z,11.85
2022-12-02T07:27:15.512Z,12.38
2022-12-02T07:28:48.465Z,12.75
2022-12-02T07:30:25.603Z,12.57
2022-12-02T07:31:58.784Z,12.40
2022-12-02T07:33:32.067Z,13.05
2022-12-02T07:35:05.269Z,12.15
2022-12-02T07:36:38.270Z,12.88
2022-12-02T07:38:12.757Z,13.32
2022-12-02T07:39:45.769Z,12.70
2022-12-02T07:41:19.611Z,12.68
2022-12-02T07:42:52.726Z,12.93
2022-12-02T07:44:25.723Z,12.20
2022-12-02T07:45:59.046Z,12.77
2022-12-02T07:47:32.727Z,12.05
2022-12-02T07:49:05.644Z,12.77
2022-12-02T07:50:38.860Z,12.05
2022-12-02T07:52:11.899Z,11.73
2022-12-02T07:53:46.203Z,13.45
2022-12-02T07:55:25.835Z,12.00
2022-12-02T07:56:59.531Z,14.38
2022-12-02T07:58:55.367Z,12.88
2022-12-02T08:00:25.723Z,14.05
2022-12-02T08:01:58.753Z,12.65
2022-12-02T08:03:31.818Z,13.82
2022-12-02T08:05:05.821Z,11.75
2022-12-02T08:06:40.040Z,12.93
2022-12-02T08:08:13.405Z,12.25
2022-12-02T08:09:47.701Z,12.50
2022-12-02T08:11:20.723Z,12.32
2022-12-02T08:12:53.857Z,12.88
2022-12-02T08:14:26.869Z,13.48
2022-12-02T08:15:59.757Z,12.32
2022-12-02T08:17:32.695Z,13.50
2022-12-02T08:19:05.710Z,13.00
2022-12-02T08:20:38.584Z,13.82
2022-12-02T08:22:11.489Z,12.57
2022-12-02T08:23:44.405Z,14.15
2022-12-02T08:25:18.763Z,13.15
2022-12-02T08:26:51.602Z,13.60
2022-12-02T08:28:24.540Z,12.50
2022-12-02T08:29:57.453Z,14.73
2022-12-02T08:31:30.789Z,13.77
2022-12-02T08:34:36.612Z,13.32
2022-12-02T08:36:10.272Z,13.23
2022-12-02T08:37:43.214Z,13.98
2022-12-02T08:39:16.127Z,15.93
2022-12-02T08:40:50.363Z,15.63
2022-12-02T08:42:23.257Z,15.32
2022-12-02T08:43:56.246Z,17.15
2022-12-02T08:45:29.403Z,15.98
2022-12-02T08:47:02.272Z,15.13
2022-12-02T08:48:35.224Z,15.63
2022-12-02T08:50:09.369Z,15.65
2022-12-02T08:51:42.663Z,14.27
2022-12-02T08:53:15.653Z,15.35
2022-12-02T08:54:48.942Z,15.43
2022-12-02T08:56:23.406Z,15.48
2022-12-02T08:57:56.544Z,15.68
2022-12-02T08:59:29.520Z,15.25
2022-12-02T09:01:02.504Z,15.45
2022-12-02T09:02:36.096Z,14.40
2022-12-02T09:04:08.979Z,15.52
2022-12-02T09:05:42.318Z,15.68
2022-12-02T09:08:48.249Z,14.73
2022-12-02T09:10:21.566Z,14.60
2022-12-02T09:11:55.809Z,14.82
2022-12-02T09:13:28.772Z,14.32
2022-12-02T09:15:01.636Z,15.43
2022-12-02T09:16:34.518Z,15.55
2022-12-02T09:18:12.686Z,14.93
2022-12-02T09:19:47.511Z,14.55
2022-12-02T09:21:20.405Z,16.08
2022-12-02T09:22:53.363Z,14.52
2022-12-02T09:24:26.653Z,15.00
2022-12-02T09:25:59.631Z,16.25
2022-12-02T09:27:34.828Z,15.30
2022-12-02T09:29:07.793Z,15.30
2022-12-02T09:30:40.719Z,16.90
2022-12-02T09:32:13.674Z,15.63
2022-12-02T09:33:46.573Z,16.45
2022-12-02T09:35:19.560Z,15.25
2022-12-02T09:36:52.840Z,15.82
2022-12-02T09:38:26.301Z,16.08
2022-12-02T09:39:59.211Z,15.05
2022-12-02T09:41:32.813Z,16.17
2022-12-02T09:43:07.323Z,16.88
2022-12-02T09:44:40.689Z,15.88
2022-12-02T09:47:46.417Z,15.73
2022-12-02T09:49:19.534Z,15.32
2022-12-02T09:50:52.799Z,15.73
2022-12-02T09:52:27.350Z,15.00
2022-12-02T09:54:00.557Z,16.35
2022-12-02T09:55:34.395Z,16.13
2022-12-02T09:57:10.779Z,15.98
2022-12-02T09:58:45.610Z,15.52
2022-12-02T10:00:20.705Z,16.25
2022-12-02T10:01:53.694Z,15.48
2022-12-02T10:03:29.927Z,16.05
2022-12-02T10:05:08.308Z,15.82
2022-12-02T10:06:42.179Z,16.70
2022-12-02T10:08:19.311Z,16.17
2022-12-02T10:09:52.234Z,16.35
2022-12-02T10:11:28.319Z,15.40
2022-12-02T10:13:07.288Z,16.27
2022-12-02T10:14:46.425Z,16.25
2022-12-02T10:16:19.657Z,14.98
2022-12-02T10:17:53.557Z,15.43
2022-12-02T10:19:26.750Z,15.60
2022-12-02T10:20:59.829Z,16.02
2022-12-02T10:22:32.769Z,15.13
2022-12-02T10:24:09.608Z,17.63
2022-12-02T10:25:44.210Z,15.55
2022-12-02T10:27:28.432Z,15.15
2022-12-02T10:29:04.625Z,15.88
2022-12-02T10:30:49.424Z,16.00
2022-12-02T10:32:25.003Z,15.55
2022-12-02T10:33:59.655Z,15.63
2022-12-02T10:35:46.033Z,15.35
2022-12-02T10:37:25.003Z,15.23
2022-12-02T10:38:58.127Z,15.82
2022-12-02T10:40:31.271Z,14.98
2022-12-02T10:42:16.841Z,15.00
2022-12-02T10:44:14.493Z,14.90
2022-12-02T10:45:57.881Z,14.60
2022-12-02T10:47:30.799Z,16.15
2022-12-02T10:49:28.636Z,15.52
2022-12-02T10:51:02.312Z,15.23
2022-12-02T10:52:44.111Z,13.48
2022-12-02T10:54:24.329Z,14.18
2022-12-02T10:55:58.051Z,14.93
2022-12-02T10:57:32.929Z,14.98
2022-12-02T10:59:10.562Z,15.20
2022-12-02T11:00:44.572Z,15.45
2022-12-02T11:02:25.579Z,15.65
2022-12-02T11:03:58.543Z,15.55
2022-12-02T11:05:32.973Z,15.98
2022-12-02T11:07:05.929Z,15.40
2022-12-02T11:08:41.265Z,14.50
2022-12-02T11:10:21.515Z,15.00
2022-12-02T11:11:54.602Z,14.95
2022-12-02T11:13:48.320Z,15.93
2022-12-02T11:15:42.616Z,14.63
2022-12-02T11:17:15.643Z,14.50
2022-12-02T11:18:58.480Z,14.95
2022-12-02T11:20:41.123Z,15.23
2022-12-02T11:23:04.767Z,15.00
2022-12-02T11:24:39.108Z,14.88
2022-12-02T11:26:12.510Z,15.43
2022-12-02T11:30:37.258Z,16.02
2022-12-02T11:32:19.363Z,14.65
2022-12-02T11:34:25.336Z,14.10
2022-12-02T11:36:15.121Z,13.10
2022-12-02T11:37:48.749Z,14.68
2022-12-02T11:39:42.165Z,14.18
2022-12-02T11:41:16.375Z,14.65
2022-12-02T11:42:49.673Z,14.93
2022-12-02T11:44:25.127Z,14.05
2022-12-02T11:45:59.442Z,13.77
2022-12-02T11:47:34.372Z,14.07
2022-12-02T11:49:27.932Z,15.55
2022-12-02T11:51:00.868Z,15.38
2022-12-02T11:52:39.600Z,14.00
2022-12-02T11:54:15.554Z,15.13
2022-12-02T11:55:49.742Z,15.15
2022-12-02T11:57:27.861Z,14.98
2022-12-02T11:59:00.835Z,14.18
2022-12-02T12:00:38.972Z,15.20
2022-12-02T12:02:14.806Z,13.70
2022-12-02T12:03:50.149Z,13.43
2022-12-02T12:05:24.674Z,14.25
2022-12-02T12:06:59.076Z,14.55
2022-12-02T12:08:32.206Z,13.95
2022-12-02T12:10:05.565Z,14.38
2022-12-02T12:13:17.108Z,14.23
2022-12-02T12:15:01.679Z,12.70
2022-12-02T12:16:36.485Z,13.18
2022-12-02T12:18:09.426Z,13.68
2022-12-02T12:19:42.413Z,14.25
2022-12-02T12:21:45.759Z,13.73
2022-12-02T12:23:33.068Z,13.15
2022-12-02T12:25:31.291Z,13.35
2022-12-02T12:27:13.811Z,12.60
2022-12-02T12:28:46.734Z,12.52
2022-12-02T12:30:19.594Z,12.55
2022-12-02T12:31:52.492Z,13.77
2022-12-02T12:33:25.441Z,14.02
2022-12-02T12:34:58.586Z,13.50
2022-12-02T12:36:32.912Z,12.98
2022-12-02T12:38:05.886Z,13.98
2022-12-02T12:39:38.863Z,13.20
2022-12-02T12:41:11.775Z,13.50
2022-12-02T12:42:44.751Z,12.88
2022-12-02T12:44:17.611Z,13.80
2022-12-02T12:45:50.629Z,12.25
2022-12-02T12:47:23.627Z,12.70
2022-12-02T12:48:56.676Z,11.98
2022-12-02T12:50:30.296Z,12.80
2022-12-02T12:52:05.463Z,11.93
2022-12-02T12:53:38.382Z,13.13
2022-12-02T12:55:11.441Z,12.57
2022-12-02T12:56:44.410Z,11.63
2022-12-02T12:58:18.170Z,13.13
2022-12-02T12:59:51.398Z,11.95
2022-12-02T13:02:58.438Z,12.18
2022-12-02T13:04:31.351Z,12.13
2022-12-02T13:06:04.345Z,12.38
2022-12-02T13:07:38.885Z,12.88
2022-12-02T13:09:11.907Z,12.80
2022-12-02T13:10:44.955Z,13.15
2022-12-02T13:12:18.002Z,12.98
2022-12-02T13:13:50.850Z,12.50
2022-12-02T13:15:23.879Z,11.95
2022-12-02T13:16:56.806Z,12.23
2022-12-02T13:18:29.751Z,13.18
2022-12-02T13:20:02.740Z,13.90
2022-12-02T13:21:35.644Z,12.57
2022-12-02T13:23:10.126Z,12.52
2022-12-02T13:24:43.512Z,11.85
2022-12-02T13:26:16.744Z,12.00
2022-12-02T13:27:49.650Z,12.27
2022-12-02T13:29:22.594Z,11.27
2022-12-02T13:30:56.185Z,12.68
2022-12-02T13:32:29.320Z,12.90
2022-12-02T13:34:02.335Z,11.15
2022-12-02T13:35:35.261Z,12.35
2022-12-02T13:37:08.629Z,11.63
2022-12-02T13:40:19.018Z,12.02
2022-12-02T13:41:52.062Z,10.80
2022-12-02T13:43:25.177Z,12.35
2022-12-02T13:44:58.106Z,12.80
2022-12-02T13:46:31.416Z,11.75
2022-12-02T13:49:46.397Z,11.57
2022-12-02T13:51:19.378Z,11.82
2022-12-02T13:52:52.357Z,12.13
2022-12-02T13:54:27.343Z,11.90
2022-12-02T13:56:00.312Z,12.30
2022-12-02T13:57:33.241Z,11.48
2022-12-02T13:59:06.277Z,12.07
2022-12-02T14:00:39.204Z,11.43
2022-12-02T14:02:12.881Z,11.57
2022-12-02T14:03:45.866Z,11.80
2022-12-02T14:05:18.991Z,11.77
2022-12-02T14:06:52.042Z,11.50
2022-12-02T14:08:25.455Z,11.75
2022-12-02T14:11:35.325Z,11.65
2022-12-02T14:13:16.014Z,10.82
2022-12-02T14:14:51.735Z,11.20
2022-12-02T14:17:57.856Z,11.20
2022-12-02T14:19:30.935Z,11.48
2022-12-02T14:21:03.964Z,11.65
2022-12-02T14:22:36.941Z,10.70
2022-12-02T14:24:10.397Z,10.60
2022-12-02T14:25:44.858Z,10.95
2022-12-02T14:27:18.115Z,12.07
2022-12-02T14:28:51.059Z,12.30
2022-12-02T14:30:24.286Z,11.80
2022-12-02T14:31:57.307Z,11.90
2022-12-02T14:33:54.807Z,12.45
2022-12-02T14:35:23.328Z,10.93
2022-12-02T14:36:56.216Z,12.63
2022-12-02T14:38:29.125Z,12.10
2022-12-02T14:40:04.172Z,11.70
2022-12-02T14:41:38.556Z,11.63
2022-12-02T14:43:14.478Z,11.40
2022-12-02T14:44:47.985Z,11.93
2022-12-02T14:46:21.023Z,12.25
2022-12-02T14:47:54.464Z,11.98
2022-12-02T14:51:15.780Z,12.18
2022-12-02T14:52:48.755Z,11.50
2022-12-02T14:54:21.754Z,13.52
2022-12-02T14:55:54.619Z,12.82
2022-12-02T14:57:28.979Z,12.65
2022-12-02T14:59:01.935Z,12.40
2022-12-02T15:00:35.191Z,12.52
2022-12-02T15:02:10.820Z,12.10
2022-12-02T15:03:43.810Z,12.40
2022-12-02T15:05:18.355Z,11.90
2022-12-02T15:06:51.322Z,11.18
2022-12-02T15:08:24.222Z,11.05
2022-12-02T15:09:57.234Z,13.05
2022-12-02T15:11:30.362Z,11.52
2022-12-02T15:13:04.808Z,12.35
2022-12-02T15:14:37.814Z,12.52
2022-12-02T15:16:11.584Z,13.05
2022-12-02T15:17:44.663Z,11.27
2022-12-02T15:19:17.679Z,12.40
2022-12-02T15:20:50.871Z,12.15
2022-12-02T15:22:24.305Z,13.75
2022-12-02T15:25:31.563Z,10.98
2022-12-02T15:27:04.907Z,12.82
2022-12-02T15:28:39.106Z,13.13
2022-12-02T15:30:13.097Z,12.32
2022-12-02T15:31:46.134Z,11.32
2022-12-02T15:33:19.118Z,11.98
2022-12-02T15:34:52.342Z,12.40
2022-12-02T15:37:58.190Z,10.70
2022-12-02T15:39:31.178Z,11.70
2022-12-02T15:41:04.220Z,13.00
2022-12-02T15:42:37.128Z,11.32
2022-12-02T15:44:11.461Z,11.40
2022-12-02T15:45:45.111Z,11.27
2022-12-02T15:47:18.006Z,12.57
2022-12-02T15:48:50.996Z,12.00
2022-12-02T15:50:23.977Z,12.48
2022-12-02T15:51:56.843Z,11.35
2022-12-02T15:53:29.718Z,12.57
2022-12-02T15:55:02.567Z,11.57
2022-12-02T15:56:35.456Z,12.50
2022-12-02T15:58:08.455Z,10.95
2022-12-02T15:59:42.723Z,12.27
2022-12-02T16:01:15.823Z,11.75
2022-12-02T16:02:54.347Z,12.68
2022-12-02T16:04:29.014Z,11.38
2022-12-02T16:06:01.971Z,11.88
2022-12-02T16:07:34.943Z,12.90
2022-12-02T16:09:08.039Z,12.77
2022-12-02T16:10:40.907Z,11.43
2022-12-02T16:12:13.951Z,12.05
2022-12-02T16:13:46.792Z,11.88
2022-12-02T16:15:21.173Z,11.63
2022-12-02T16:16:54.313Z,11.48
2022-12-02T16:18:28.560Z,11.88
2022-12-02T16:20:01.414Z,12.00
2022-12-02T16:21:34.397Z,11.65
2022-12-02T16:23:07.288Z,11.00
2022-12-02T16:24:40.210Z,12.95
2022-12-02T16:26:13.449Z,11.68
2022-12-02T16:27:46.433Z,12.40
2022-12-02T16:29:19.298Z,14.23
2022-12-02T16:30:53.512Z,11.77
2022-12-02T16:32:26.491Z,12.65
2022-12-02T16:33:59.360Z,11.30
2022-12-02T16:35:32.307Z,11.73
2022-12-02T16:37:05.261Z,12.10
2022-12-02T16:38:38.210Z,12.35
2022-12-02T16:40:12.590Z,12.43
2022-12-02T16:41:45.521Z,11.93
2022-12-02T16:43:18.458Z,11.30
2022-12-02T16:44:55.555Z,12.60
2022-12-02T16:46:32.389Z,13.43
2022-12-02T16:48:05.530Z,11.57
2022-12-02T16:49:38.499Z,11.73
2022-12-02T16:51:11.347Z,11.63
2022-12-02T16:52:44.591Z,11.15
2022-12-02T16:54:17.636Z,11.65
2022-12-02T16:55:50.564Z,11.13
2022-12-02T16:57:23.451Z,12.07
2022-12-02T16:58:56.658Z,11.13
2022-12-02T17:00:29.607Z,10.73
2022-12-02T17:02:04.097Z,11.25
2022-12-02T17:03:37.208Z,11.20
2022-12-02T17:05:11.129Z,12.07
2022-12-02T17:06:44.034Z,11.88
2022-12-02T17:08:17.230Z,11.63
2022-12-02T17:09:50.147Z,11.95
2022-12-02T17:11:23.082Z,11.35
2022-12-02T17:12:55.947Z,11.48
2022-12-02T17:14:28.876Z,12.15
2022-12-02T17:16:01.786Z,11.20
2022-12-02T17:17:51.315Z,10.80
2022-12-02T17:19:26.271Z,11.32
2022-12-02T17:20:59.168Z,11.80
2022-12-02T17:22:32.092Z,11.82
2022-12-02T17:24:05.532Z,11.50
2022-12-02T17:27:11.159Z,11.07
2022-12-02T17:28:44.035Z,11.80
2022-12-02T17:30:17.061Z,11.20
2022-12-02T17:31:50.080Z,11.55
2022-12-02T17:33:24.372Z,10.80
2022-12-02T17:34:57.294Z,11.35
2022-12-02T17:36:30.203Z,10.68
2022-12-02T17:38:03.160Z,11.48
2022-12-02T17:39:36.165Z,12.50
2022-12-02T17:41:11.984Z,11.35
2022-12-02T17:42:47.708Z,11.10
2022-12-02T17:44:20.582Z,12.63
2022-12-02T17:45:53.470Z,11.80
2022-12-02T17:47:26.359Z,11.38
2022-12-02T17:49:01.156Z,12.00
2022-12-02T17:50:34.151Z,12.77
2022-12-02T17:52:19.649Z,12.00
2022-12-02T17:53:53.350Z,12.68
2022-12-02T17:55:26.348Z,11.45
2022-12-02T17:56:59.243Z,12.05
2022-12-02T17:58:32.288Z,12.00
2022-12-02T18:00:06.608Z,12.88
2022-12-02T18:01:39.503Z,11.32
2022-12-02T18:03:12.617Z,11.38
2022-12-02T18:04:46.942Z,12.13
2022-12-02T18:06:19.819Z,12.27
2022-12-02T18:07:53.032Z,11.85
2022-12-02T18:09:25.939Z,12.65
2022-12-02T18:10:58.889Z,12.13
2022-12-02T18:12:31.816Z,11.38
2022-12-02T18:14:04.664Z,11.65
2022-12-02T18:15:37.526Z,12.63
2022-12-02T18:17:10.471Z,11.77
2022-12-02T18:18:43.469Z,11.95
2022-12-02T18:20:17.838Z,10.77
2022-12-02T18:21:50.825Z,11.07
2022-12-02T18:23:27.701Z,11.90
2022-12-02T18:25:00.923Z,11.93
2022-12-02T18:26:34.064Z,11.77
2022-12-02T18:28:07.198Z,11.70
2022-12-02T18:29:40.115Z,12.48
2022-12-02T18:31:15.399Z,11.75
2022-12-02T18:32:49.058Z,12.10
2022-12-02T18:34:23.558Z,11.38
2022-12-02T18:35:57.909Z,12.18
2022-12-02T18:37:30.844Z,11.85
2022-12-02T18:39:03.958Z,12.80
2022-12-02T18:40:36.956Z,11.38
2022-12-02T18:42:09.990Z,11.48
2022-12-02T18:43:42.820Z,12.65
2022-12-02T18:45:15.967Z,12.25
2022-12-02T18:46:48.922Z,12.35
2022-12-02T18:48:21.784Z,12.70
2022-12-02T18:49:54.756Z,13.07
2022-12-02T18:51:29.034Z,12.82
2022-12-02T18:53:01.965Z,11.68
2022-12-02T18:54:34.836Z,12.38
2022-12-02T18:56:08.241Z,12.77
2022-12-02T18:59:14.254Z,10.65
2022-12-02T19:00:47.101Z,12.68
2022-12-02T19:02:20.231Z,12.52
2022-12-02T19:03:53.311Z,12.10
2022-12-02T19:05:26.191Z,11.85
2022-12-02T19:07:00.489Z,12.52
2022-12-02T19:08:33.293Z,12.60
2022-12-02T19:10:07.552Z,12.60
2022-12-02T19:11:40.460Z,11.77
2022-12-02T19:13:13.296Z,12.93
2022-12-02T19:14:46.130Z,11.68
2022-12-02T19:16:19.096Z,12.93
2022-12-02T19:17:52.129Z,12.18
2022-12-02T19:19:24.972Z,13.13
2022-12-02T19:20:57.852Z,12.65
2022-12-02T19:22:32.067Z,13.10
2022-12-02T19:24:05.654Z,12.25
2022-12-02T19:25:44.928Z,12.18
2022-12-02T19:27:49.276Z,12.40
2022-12-02T19:29:12.816Z,12.35
2022-12-02T19:30:45.782Z,12.15
2022-12-02T19:32:19.124Z,12.70
2022-12-02T19:33:52.061Z,12.45
2022-12-02T19:35:24.950Z,11.65
2022-12-02T19:36:57.793Z,12.95
2022-12-02T19:38:32.164Z,11.27
2022-12-02T19:40:05.367Z,12.80
2022-12-02T19:41:38.206Z,12.02
2022-12-02T19:43:11.311Z,12.30
2022-12-02T19:44:44.194Z,12.32
2022-12-02T19:46:17.114Z,12.38
2022-12-02T19:47:50.060Z,12.38
2022-12-02T19:49:23.182Z,11.50
2022-12-02T19:50:56.529Z,12.93
2022-12-02T19:54:03.741Z,11.73
2022-12-02T19:55:36.750Z,12.15
2022-12-02T19:57:10.032Z,13.32
2022-12-02T19:58:42.992Z,11.75
2022-12-02T20:00:17.716Z,10.98
2022-12-02T20:01:50.687Z,12.90
2022-12-02T20:03:23.783Z,12.55
2022-12-02T20:04:57.153Z,13.07
2022-12-02T20:06:30.244Z,13.55
2022-12-02T20:08:03.173Z,12.15
2022-12-02T20:09:37.523Z,13.48
2022-12-02T20:11:10.452Z,13.07
2022-12-02T20:12:43.581Z,12.23
2022-12-02T20:14:16.428Z,11.90
2022-12-02T20:15:51.464Z,13.18
2022-12-02T20:17:27.818Z,13.43
2022-12-02T20:19:00.742Z,12.35
2022-12-02T20:20:33.614Z,12.55
2022-12-02T20:22:06.500Z,12.05
2022-12-02T20:23:39.339Z,13.93
2022-12-02T20:25:15.208Z,12.50
2022-12-02T20:26:48.121Z,12.65
2022-12-02T20:28:21.105Z,12.70
2022-12-02T20:29:53.999Z,12.50
2022-12-02T20:31:26.873Z,12.40
2022-12-02T20:32:59.833Z,13.57
2022-12-02T20:34:34.733Z,12.68
2022-12-02T20:36:08.492Z,12.85
2022-12-02T20:37:41.559Z,12.65
2022-12-02T20:39:14.608Z,11.75
2022-12-02T20:40:48.822Z,13.15
2022-12-02T20:42:21.719Z,12.45
2022-12-02T20:43:54.538Z,12.80
2022-12-02T20:45:27.412Z,12.43
2022-12-02T20:47:01.512Z,11.80
2022-12-02T20:48:34.396Z,12.55
2022-12-02T20:50:08.833Z,11.50
2022-12-02T20:51:41.659Z,12.75
2022-12-02T20:53:14.626Z,11.95
2022-12-02T20:54:47.467Z,11.60
2022-12-02T20:56:21.962Z,13.50
2022-12-02T20:57:54.916Z,12.35
2022-12-02T20:59:27.759Z,12.50
2022-12-02T21:01:00.704Z,12.73
2022-12-02T21:02:33.746Z,12.10
2022-12-02T21:04:06.843Z,11.90
2022-12-02T21:05:39.701Z,13.30
2022-12-02T21:07:12.545Z,13.15
2022-12-02T21:08:45.376Z,12.95
2022-12-02T21:10:18.762Z,12.45
2022-12-02T21:11:52.996Z,13.15
2022-12-02T21:13:25.959Z,11.68
2022-12-02T21:14:58.799Z,13.23
2022-12-02T21:16:31.788Z,11.88
2022-12-02T21:18:05.272Z,13.18
2022-12-02T21:21:10.941Z,11.15
2022-12-02T21:22:43.770Z,11.45
2022-12-02T21:24:16.941Z,12.25
2022-12-02T21:25:49.790Z,12.07
2022-12-02T21:27:24.587Z,11.52
2022-12-02T21:28:57.431Z,12.45
2022-12-02T21:30:30.322Z,12.40
2022-12-02T21:32:03.574Z,12.20
2022-12-02T21:33:36.552Z,12.48
2022-12-02T21:35:10.270Z,12.50
2022-12-02T21:36:43.287Z,12.65
2022-12-02T21:38:17.065Z,12.57
2022-12-02T21:39:49.965Z,12.05
2022-12-02T21:41:22.839Z,12.93
2022-12-02T21:42:57.066Z,12.00
2022-12-02T21:44:29.958Z,12.73
2022-12-02T21:46:02.885Z,12.43
2022-12-02T21:47:35.791Z,11.77
2022-12-02T21:49:08.663Z,11.93
2022-12-02T21:50:41.619Z,12.23
2022-12-02T21:52:14.522Z,11.88
2022-12-02T21:53:47.457Z,12.00
2022-12-02T21:55:20.399Z,12.23
2022-12-02T21:56:53.340Z,12.40
2022-12-02T21:58:27.761Z,11.98
2022-12-02T22:00:00.648Z,12.70
2022-12-02T22:01:39.428Z,12.98